AirNav   ProFlight Series 2 Aviation Headset
 
 824 users online  

64FL District VI Heliport
Miami, Florida, USA

GOING TO MIAMI?


FAA INFORMATION EFFECTIVE 16 JULY 2020

Location

FAA Identifier: 64FL
Lat/Long: 25-46-55.1300N 080-22-39.0800W
25-46.918833N 080-22.651333W
25.7819806,-80.3775222
(estimated)
Elevation: 8 ft. / 2 m (estimated)
From city: 9 miles NE of MIAMI, FL
Time zone: UTC -4 (UTC -5 during Standard Time)
Zip code: 33172

Heliport Operations

Heliport use: Private use. Permission required prior to landing
Activation date: 07/2004
Control tower: no
ARTCC: MIAMI CENTER
FSS: MIAMI FLIGHT SERVICE STATION
Attendance: UNATNDD
Wind indicator: yes
Segmented circle: no

Heliport Communications

WX ASOS at MIA (5 nm E): 119.15 (305-870-0235)
WX ASOS at TMB (9 nm S): PHONE 305-235-1332
WX ASOS at OPF (9 nm NE): 125.9 (305-681-4063)
WX ASOS at HWO (15 nm NE): PHONE 954-983-5904
WX AWOS-3 at X51 (19 nm SW): 118.375 ((305) 247-2791)

Nearby radio navigation aids

VOR radial/distance  VOR name  Freq  Var
DHPr239/1.9DOLPHIN VORTAC113.9004W
VKZr283/12.2VIRGINIA KEY VOR/DME117.1004W
FLLr219/20.9FORT LAUDERDALE VOR/DME114.4006W

Heliport Services

Runway Information

Helipad H1

Dimensions: 20 x 20 ft. / 6 x 6 m
Surface: concrete
Latitude: 25-46.918833N
Longitude: 080-22.651333W
Elevation: 8.0 ft.
Traffic pattern: leftleft

Heliport Ownership and Management from official FAA records

Ownership: Privately-owned
Owner: FLORIDA DOT
1000 NW 111 AVENUE
MIAMI, FL 33172-5800
Phone 305-470-5366
Manager: C. JEAN CANN
1000 NW 111 AVENUE
MIAMI, FL 33172-5800
Phone 305-470-5353

Additional Remarks

FOR CD CTC MIAMI APCH AT 305-869-5432.

Instrument Procedures

There are no published instrument procedures at 64FL.

Some nearby airports with instrument procedures:

KMIA - Miami International Airport (5 nm E)
KTMB - Miami Executive Airport (9 nm S)
KOPF - Miami-Opa Locka Executive Airport (9 nm NE)
KHWO - North Perry Airport (15 nm NE)
KHST - Homestead Air Reserve Base (18 nm S)
X51 - Miami Homestead General Aviation Airport (19 nm SW)
 
Loc | Ops | Rwys | IFR | FBO | Links
Com | Nav | Svcs | Stats | Notes


 
Area around 64FL (District VI Heliport)
 
Road maps at: MapQuest Bing Google
 
Aerial photo
No photo
 
Sectional chart

 
Airport distance calculator
Flying to District VI Heliport? Find the distance to fly.

From to 64FL

Sunrise and sunset
Times for 13-Aug-2020
 Local
(UTC-4)
 Zulu
(UTC)
Morning civil twilight06:3110:31
Sunrise06:5510:55
Sunset19:5723:57
Evening civil twilight20:2100:21

Current date and time
Zulu (UTC)  13-Aug-2020 04:07:07
Local (UTC-4)  13-Aug-2020 00:07:07
 
METAR
KMIA 
3nm E 
130353Z 10007KT 10SM FEW024 29/24 A3004 RMK AO2 SLP171 T02940244
KTMB 
8nm S 
130353Z AUTO 05004KT 10SM FEW024 29/26 A3003 RMK AO2 SLP169 T02940256 PWINO
KOPF 
10nm NE 
130353Z AUTO 09004KT 10SM CLR 28/23 A3004 RMK AO2 SLP173 T02830233
KHWO 
15nm NE 
130353Z AUTO 12005KT 10SM CLR 29/25 A3005 RMK AO2 SLP175 T02940250
KHST 
19nm S 
130356Z AUTO 11009KT 10SM SCT025 BKN033 29/25 A3002 RMK AO2 LTG DSNT SE SLP169 T02860246
TAF
KMIA 
3nm E 
122109Z 1221/1324 13008KT P6SM SCT025 SCT150 FM130200 VRB03KT P6SM FEW020 FM131300 11007KT P6SM VCTS SCT025CB BKN050 FM131700 12010KT P6SM SCT035
KTMB 
8nm S 
122109Z 1221/1318 12008KT P6SM SCT025 SCT150 FM130200 VRB03KT P6SM FEW020 FM131300 11007KT P6SM VCTS SCT025CB BKN050 FM131700 12010KT P6SM SCT035
KOPF 
10nm NE 
122109Z 1221/1318 13008KT P6SM SCT025 SCT150 FM130200 VRB03KT P6SM FEW020 FM131300 11007KT P6SM VCTS SCT025CB BKN050 FM131700 12010KT P6SM SCT035
KHST 
19nm S 
121900Z 1219/1401 11009KT 9999 VCSH FEW025 SCT200 QNH2997INS BECMG 1223/1224 10006KT 9999 NSW FEW025 FEW200 QNH2998INS TX32/1219Z TN26/1311Z
NOTAMs
Click for the latest NOTAMs
NOTAMs are issued by the DoD/FAA and will open in a separate window not controlled by AirNav.

 

 
 

Would you like to see your business listed on this page?

 If your business provides an interesting product or service to pilots, flight crews, aircraft, or users of the District VI Heliport, you should consider listing it here.  To start the listing process, click on the button below
 
Add a business
 

Other Pages about District VI Heliport

Update a link
 
Copyright © AirNav, LLC. All rights reserved. Privacy Policy  Contact